Time;durP1;ratioP1;P1;durP2;ratioP2;P2;SDS_P1;SDS_P2;PMS_P1;PMS_P2;Temp;Humidity;BMP_temperature;BMP_pressure;BME280_temperature;BME280_humidity;BME280_pressure;Samples;Min_cycle;Max_cycle;Signal;HPM_P1;HPM_P2
2022/08/27 00:01:50;;;;;;;5.20;2.00;;;18.60;99.90;;;;;;5033726;28;20188;-89
2022/08/27 00:04:16;;;;;;;3.10;1.95;;;18.40;99.90;;;;;;5032517;28;20234;-84
2022/08/27 00:06:41;;;;;;;5.63;2.10;;;18.50;99.90;;;;;;5031308;28;20203;-84
2022/08/27 00:09:08;;;;;;;4.22;2.30;;;18.50;99.90;;;;;;5030926;28;20222;-83
2022/08/27 00:11:34;;;;;;;12.57;2.55;;;18.40;99.90;;;;;;5031202;28;20678;-83
2022/08/27 00:14:00;;;;;;;5.47;2.33;;;18.30;99.90;;;;;;5031091;28;20168;-84
2022/08/27 00:16:26;;;;;;;8.38;2.20;;;18.20;99.90;;;;;;5030933;28;20302;-83
2022/08/27 00:18:53;;;;;;;6.38;1.98;;;18.30;99.90;;;;;;5030988;28;20164;-83
2022/08/27 00:21:20;;;;;;;10.10;2.28;;;18.40;99.90;;;;;;5031849;28;20192;-87
2022/08/27 00:23:45;;;;;;;5.18;1.83;;;18.50;99.90;;;;;;5033531;28;20591;-88
2022/08/27 00:26:12;;;;;;;5.75;2.13;;;18.40;99.90;;;;;;5034859;28;20178;-88
2022/08/27 00:28:38;;;;;;;3.70;1.75;;;18.30;99.90;;;;;;5036462;28;20183;-89
2022/08/27 00:31:04;;;;;;;6.50;2.20;;;18.30;99.90;;;;;;5034697;28;20168;-88
2022/08/27 00:33:30;;;;;;;3.28;2.25;;;18.30;99.90;;;;;;5035929;28;20171;-89
2022/08/27 00:35:55;;;;;;;3.03;1.60;;;18.40;99.90;;;;;;5031681;28;20199;-84
2022/08/27 00:38:22;;;;;;;10.75;1.90;;;18.60;99.90;;;;;;5030735;28;20274;-84
2022/08/27 00:40:48;;;;;;;7.65;2.00;;;18.80;99.90;;;;;;5031383;28;20716;-83
2022/08/27 00:43:21;;;;;;;3.08;1.98;;;18.60;99.90;;;;;;5030784;28;20202;-83
2022/08/27 00:45:47;;;;;;;2.78;1.85;;;18.80;99.90;;;;;;5032678;28;20168;-84
2022/08/27 00:48:16;;;;;;;6.43;2.28;;;19.00;99.90;;;;;;5031298;28;20194;-84
2022/08/27 00:50:51;;;;;;;5.93;1.70;;;19.10;99.90;;;;;;5032210;28;20172;-87
2022/08/27 00:53:22;;;;;;;3.40;1.73;;;19.10;99.90;;;;;;5034642;28;20199;-89
2022/08/27 00:55:56;;;;;;;2.70;1.85;;;19.10;99.90;;;;;;5036845;28;20286;-87
2022/08/27 00:58:36;;;;;;;6.47;1.75;;;19.10;99.90;;;;;;5046101;28;20186;-87
2022/08/27 01:01:03;;;;;;;9.05;2.28;;;19.00;99.90;;;;;;5055543;28;20152;-87
2022/08/27 01:03:29;;;;;;;5.07;1.73;;;19.30;99.90;;;;;;5049589;28;20168;-85
2022/08/27 01:06:00;;;;;;;5.43;1.83;;;19.40;99.90;;;;;;5040834;28;20627;-83
2022/08/27 01:08:35;;;;;;;5.07;1.42;;;19.50;99.90;;;;;;5034365;28;20167;-84
2022/08/27 01:11:01;;;;;;;3.13;1.73;;;19.60;99.90;;;;;;5034199;28;20254;-83
2022/08/27 01:13:30;;;;;;;3.13;1.80;;;19.70;99.90;;;;;;5034113;28;20164;-83
2022/08/27 01:15:58;;;;;;;3.10;1.30;;;19.70;99.90;;;;;;5034007;28;20261;-83
2022/08/27 01:18:29;;;;;;;4.63;1.48;;;19.40;99.90;;;;;;5034895;28;20516;-84
2022/08/27 01:20:58;;;;;;;5.55;1.42;;;19.30;99.90;;;;;;5037543;28;20237;-84
2022/08/27 01:24:00;;;;;;;5.18;1.20;;;19.50;99.90;;;;;;5038960;28;20640;-84
2022/08/27 01:26:27;;;;;;;3.88;1.67;;;19.40;99.90;;;;;;5037058;28;20180;-85
2022/08/27 01:28:53;;;;;;;3.78;1.90;;;19.30;99.90;;;;;;5035925;28;20168;-84
2022/08/27 01:31:19;;;;;;;3.97;1.60;;;19.10;99.90;;;;;;5033980;28;20198;-84
2022/08/27 01:34:02;;;;;;;5.25;1.67;;;19.10;99.90;;;;;;5036145;28;20199;-84
2022/08/27 01:36:29;;;;;;;3.60;1.60;;;19.00;99.90;;;;;;5033692;28;20581;-83
2022/08/27 01:38:55;;;;;;;7.50;1.27;;;18.90;99.90;;;;;;5035204;28;20282;-84
2022/08/27 01:41:21;;;;;;;5.20;1.65;;;18.80;99.90;;;;;;5034960;28;20184;-83
2022/08/27 01:43:47;;;;;;;2.50;1.35;;;19.00;99.90;;;;;;5033755;28;20168;-84
2022/08/27 01:46:13;;;;;;;8.20;1.88;;;18.80;99.90;;;;;;5033807;28;20218;-84
2022/08/27 01:48:39;;;;;;;5.05;1.45;;;18.70;99.90;;;;;;5035099;28;20171;-83
2022/08/27 01:51:04;;;;;;;3.45;1.50;;;18.70;99.90;;;;;;5033747;28;20527;-84
2022/08/27 01:53:30;;;;;;;8.00;2.53;;;18.60;99.90;;;;;;5033830;28;20183;-84
2022/08/27 01:55:56;;;;;;;5.10;1.73;;;18.40;99.90;;;;;;5034960;28;20603;-84
2022/08/27 01:58:26;;;;;;;4.88;1.80;;;18.30;99.90;;;;;;5035158;28;20205;-84
2022/08/27 02:00:55;;;;;;;6.55;1.80;;;18.20;99.90;;;;;;5033379;28;20306;-84
2022/08/27 02:03:21;;;;;;;3.83;1.45;;;18.10;99.90;;;;;;5034614;28;20168;-83
2022/08/27 02:05:47;;;;;;;5.55;1.67;;;18.10;99.90;;;;;;5034355;28;20830;-85
2022/08/27 02:08:14;;;;;;;2.58;1.70;;;17.90;99.90;;;;;;5035663;28;20176;-85
2022/08/27 02:10:42;;;;;;;5.78;1.67;;;17.90;99.90;;;;;;5034811;28;20171;-84
2022/08/27 02:13:07;;;;;;;5.55;1.10;;;17.80;99.90;;;;;;5036026;28;20252;-83
2022/08/27 02:15:35;;;;;;;7.57;1.92;;;17.90;99.90;;;;;;5035087;28;20156;-84
2022/08/27 02:18:01;;;;;;;7.35;1.45;;;18.00;99.90;;;;;;5034168;28;20176;-83
2022/08/27 02:20:28;;;;;;;2.90;1.50;;;18.00;99.90;;;;;;5034254;28;20183;-84
2022/08/27 02:22:53;;;;;;;7.28;1.95;;;18.00;99.90;;;;;;5034406;28;20195;-84
2022/08/27 02:25:20;;;;;;;3.22;1.92;;;18.00;99.90;;;;;;5033349;28;20218;-84
2022/08/27 02:27:47;;;;;;;3.20;1.73;;;18.00;99.90;;;;;;5033217;28;20540;-83
2022/08/27 02:30:16;;;;;;;5.00;1.88;;;18.00;99.90;;;;;;5033082;28;20567;-82
2022/08/27 02:32:45;;;;;;;8.85;2.00;;;18.10;99.90;;;;;;5032881;28;20203;-84
2022/08/27 02:35:15;;;;;;;3.90;1.90;;;18.00;99.90;;;;;;5032943;28;20172;-83
2022/08/27 02:37:42;;;;;;;5.32;2.30;;;17.90;99.90;;;;;;5032352;28;20203;-83
2022/08/27 02:40:10;;;;;;;3.58;1.50;;;18.00;99.90;;;;;;5032423;28;20617;-86
2022/08/27 02:42:35;;;;;;;4.18;1.42;;;18.00;99.90;;;;;;5033419;28;20195;-84
2022/08/27 02:45:01;;;;;;;2.95;1.55;;;18.00;99.90;;;;;;5033673;28;20164;-87
2022/08/27 02:47:27;;;;;;;5.10;1.55;;;18.00;99.90;;;;;;5032611;28;20222;-83
2022/08/27 02:49:52;;;;;;;3.58;1.70;;;17.90;99.90;;;;;;5032179;28;20647;-83
2022/08/27 02:52:18;;;;;;;5.85;2.15;;;18.00;99.90;;;;;;5033225;28;20253;-85
2022/08/27 02:54:44;;;;;;;6.68;1.80;;;17.90;99.90;;;;;;5032417;28;20171;-84
2022/08/27 02:57:11;;;;;;;3.83;1.70;;;17.90;99.90;;;;;;5032155;28;20208;-84
2022/08/27 02:59:36;;;;;;;2.85;1.70;;;17.80;99.90;;;;;;5032078;28;20171;-84
2022/08/27 03:02:02;;;;;;;3.28;1.98;;;17.80;99.90;;;;;;5032011;28;20555;-86
2022/08/27 03:04:28;;;;;;;5.93;1.70;;;18.00;99.90;;;;;;5032206;28;20230;-84
2022/08/27 03:06:54;;;;;;;3.85;1.67;;;18.00;99.90;;;;;;5032093;28;20182;-83
2022/08/27 03:09:20;;;;;;;6.95;1.80;;;18.10;99.90;;;;;;5033403;28;20164;-83
2022/08/27 03:11:46;;;;;;;11.50;2.08;;;18.20;99.90;;;;;;5032353;28;20196;-84
2022/08/27 03:14:11;;;;;;;3.63;2.10;;;18.20;99.90;;;;;;5032290;28;20179;-83
2022/08/27 03:16:38;;;;;;;5.00;2.10;;;18.30;99.90;;;;;;5031953;28;20556;-82
2022/08/27 03:19:07;;;;;;;9.57;1.70;;;18.30;99.90;;;;;;5032315;28;20630;-84
2022/08/27 03:21:34;;;;;;;6.55;2.03;;;18.10;99.90;;;;;;5031637;28;20192;-84
2022/08/27 03:24:00;;;;;;;4.22;2.47;;;18.00;99.90;;;;;;5033120;28;20190;-83
2022/08/27 03:26:27;;;;;;;8.60;2.33;;;18.00;99.90;;;;;;5032286;28;20172;-83
2022/08/27 03:28:53;;;;;;;8.55;3.03;;;17.90;99.90;;;;;;5031751;28;20217;-84
2022/08/27 03:31:25;;;;;;;5.60;2.08;;;18.00;99.90;;;;;;5031476;28;20195;-83
2022/08/27 03:34:02;;;;;;;2.85;1.60;;;18.10;99.90;;;;;;5031952;28;20167;-84
2022/08/27 03:36:29;;;;;;;6.65;1.83;;;18.00;99.90;;;;;;5031165;28;20238;-83
2022/08/27 03:38:55;;;;;;;3.25;1.98;;;18.10;99.90;;;;;;5032950;28;20166;-83
2022/08/27 03:41:22;;;;;;;5.03;2.13;;;18.10;99.90;;;;;;5032914;28;20202;-83
2022/08/27 03:43:48;;;;;;;4.05;2.03;;;18.10;99.90;;;;;;5031079;28;20581;-83
2022/08/27 03:46:15;;;;;;;6.45;2.58;;;17.90;99.90;;;;;;5031417;28;20639;-83
2022/08/27 03:48:41;;;;;;;4.13;1.75;;;17.80;99.90;;;;;;5031350;28;20178;-85
2022/08/27 03:51:09;;;;;;;4.13;2.25;;;17.80;99.90;;;;;;5031387;28;20279;-84
2022/08/27 03:53:37;;;;;;;3.65;1.98;;;17.70;99.90;;;;;;5033115;28;20194;-86
2022/08/27 03:56:05;;;;;;;3.45;2.47;;;17.50;99.90;;;;;;5032326;28;20266;-84
2022/08/27 03:58:31;;;;;;;11.18;2.92;;;17.50;99.90;;;;;;5032496;28;20172;-84
2022/08/27 04:00:57;;;;;;;13.10;2.92;;;17.60;99.90;;;;;;5032164;28;20171;-85
2022/08/27 04:03:23;;;;;;;6.30;2.47;;;17.60;99.90;;;;;;5032122;28;20183;-90
2022/08/27 04:05:53;;;;;;;13.27;2.80;;;17.60;99.90;;;;;;5034458;28;20168;-83
2022/08/27 04:08:20;;;;;;;4.75;2.88;;;17.50;99.90;;;;;;5033824;28;20627;-85
2022/08/27 04:10:46;;;;;;;6.50;2.78;;;17.40;99.90;;;;;;5032436;28;20198;-85
2022/08/27 04:13:11;;;;;;;5.82;2.67;;;17.40;99.90;;;;;;5032014;28;20668;-85
2022/08/27 04:15:43;;;;;;;5.38;2.17;;;17.30;99.90;;;;;;5032014;28;20900;-91
2022/08/27 04:18:09;;;;;;;4.93;2.63;;;17.20;99.90;;;;;;5031845;28;20544;-90
2022/08/27 04:20:35;;;;;;;6.78;2.25;;;17.00;99.90;;;;;;5031922;28;20171;-84
2022/08/27 04:23:00;;;;;;;7.40;2.60;;;16.90;99.90;;;;;;5034768;28;20648;-88
2022/08/27 04:25:26;;;;;;;4.63;2.83;;;16.90;99.90;;;;;;5033552;28;20168;-85
2022/08/27 04:27:52;;;;;;;6.65;3.10;;;17.20;99.90;;;;;;5035865;28;20214;-85
2022/08/27 04:30:18;;;;;;;4.93;2.70;;;17.30;99.90;;;;;;5036862;28;20172;-89
2022/08/27 04:32:44;;;;;;;7.40;2.75;;;17.50;99.90;;;;;;5034311;28;20203;-84
2022/08/27 04:35:10;;;;;;;10.05;3.05;;;17.50;99.90;;;;;;5037604;28;20524;-88
2022/08/27 04:37:36;;;;;;;3.08;2.22;;;17.60;99.90;;;;;;5036361;28;20220;-88
2022/08/27 04:40:02;;;;;;;3.47;2.45;;;17.60;99.90;;;;;;5036698;28;20251;-90
2022/08/27 04:42:31;;;;;;;7.20;2.38;;;17.70;99.90;;;;;;5037776;28;20187;-90
2022/08/27 04:44:56;;;;;;;5.95;2.85;;;17.70;99.90;;;;;;5036340;28;20168;-89
2022/08/27 04:47:22;;;;;;;11.18;3.45;;;17.70;99.90;;;;;;5037623;28;20519;-89
2022/08/27 04:49:48;;;;;;;10.18;2.72;;;17.70;99.90;;;;;;5036142;28;20178;-90
2022/08/27 04:52:14;;;;;;;8.35;3.08;;;17.70;99.90;;;;;;5035115;28;20214;-84
2022/08/27 04:54:41;;;;;;;8.07;2.90;;;17.80;99.90;;;;;;5034633;28;20168;-88
2022/08/27 04:57:07;;;;;;;10.10;3.40;;;17.70;99.90;;;;;;5035886;28;20211;-85
2022/08/27 04:59:33;;;;;;;9.13;2.83;;;17.90;99.90;;;;;;5036693;28;20199;-87
2022/08/27 05:02:00;;;;;;;4.15;2.53;;;17.80;99.90;;;;;;5036591;28;20206;-86
2022/08/27 05:04:27;;;;;;;4.63;2.85;;;17.60;99.90;;;;;;5037034;28;20172;-84
2022/08/27 05:06:53;;;;;;;6.68;2.55;;;17.30;99.90;;;;;;5039539;28;20239;-89
2022/08/27 05:09:19;;;;;;;4.18;2.58;;;17.10;99.90;;;;;;5039312;28;20207;-90
2022/08/27 05:11:45;;;;;;;3.67;2.80;;;17.00;99.90;;;;;;5035617;28;20205;-89
2022/08/27 05:14:13;;;;;;;10.32;3.15;;;17.00;99.90;;;;;;5035743;28;20171;-87
2022/08/27 05:16:39;;;;;;;5.78;2.90;;;17.00;99.90;;;;;;5035639;28;20683;-90
2022/08/27 05:19:07;;;;;;;7.78;3.65;;;17.10;99.90;;;;;;5035945;28;20168;-89
2022/08/27 05:21:37;;;;;;;7.03;2.33;;;17.20;99.90;;;;;;5034758;28;20288;-85
2022/08/27 05:24:05;;;;;;;4.07;2.67;;;17.20;99.90;;;;;;5035422;28;20664;-84
2022/08/27 05:26:33;;;;;;;3.88;2.22;;;17.40;99.90;;;;;;5034094;28;20172;-84
2022/08/27 05:28:59;;;;;;;4.25;2.72;;;17.40;99.90;;;;;;5034444;28;20313;-84
2022/08/27 05:31:26;;;;;;;4.85;3.20;;;17.40;99.90;;;;;;5033792;28;20227;-85
2022/08/27 05:33:54;;;;;;;9.68;3.55;;;17.40;99.90;;;;;;5034317;28;20168;-85
2022/08/27 05:36:24;;;;;;;5.22;2.20;;;17.50;99.90;;;;;;5034045;28;20664;-87
2022/08/27 05:38:50;;;;;;;3.70;2.17;;;17.60;99.90;;;;;;5034696;28;20178;-88
2022/08/27 05:41:24;;;;;;;5.65;2.22;;;17.70;99.90;;;;;;5034111;28;20207;-83
2022/08/27 05:43:50;;;;;;;6.93;2.47;;;17.70;99.90;;;;;;5035180;28;20166;-88
2022/08/27 05:46:17;;;;;;;6.22;2.42;;;17.90;99.90;;;;;;5035169;28;20164;-85
2022/08/27 05:48:43;;;;;;;9.32;2.30;;;17.80;99.90;;;;;;5035235;28;20164;-85
2022/08/27 05:51:12;;;;;;;4.05;1.85;;;17.70;99.90;;;;;;5034994;28;20183;-85
2022/08/27 05:53:39;;;;;;;5.20;2.35;;;17.70;99.90;;;;;;5034150;28;20219;-84
2022/08/27 05:56:11;;;;;;;5.38;2.08;;;17.70;99.90;;;;;;5033194;28;20349;-84
2022/08/27 06:01:21;;;;;;;5.20;2.15;;;18.10;99.90;;;;;;5034906;28;20226;-86
2022/08/27 06:03:47;;;;;;;7.93;2.13;;;18.10;99.90;;;;;;5033372;28;20168;-82
2022/08/27 06:06:13;;;;;;;6.53;2.97;;;18.10;99.90;;;;;;5034411;28;20620;-83
2022/08/27 06:08:39;;;;;;;7.50;2.22;;;18.00;99.90;;;;;;5034325;28;20598;-83
2022/08/27 06:11:06;;;;;;;5.13;2.10;;;18.00;99.90;;;;;;5033558;28;20175;-83
2022/08/27 06:13:33;;;;;;;5.18;1.95;;;18.00;99.90;;;;;;5032903;28;20199;-83
2022/08/27 06:16:01;;;;;;;5.38;2.03;;;18.20;99.90;;;;;;5032800;28;20200;-84
2022/08/27 06:18:27;;;;;;;3.88;2.53;;;18.50;99.90;;;;;;5034035;28;20171;-83
2022/08/27 06:20:53;;;;;;;2.65;2.03;;;18.60;99.90;;;;;;5032622;28;20168;-83
2022/08/27 06:23:19;;;;;;;6.70;2.08;;;18.50;99.90;;;;;;5032259;28;20183;-83
2022/08/27 06:25:45;;;;;;;5.18;1.60;;;18.40;99.90;;;;;;5033808;28;20163;-82
2022/08/27 06:28:12;;;;;;;12.75;2.25;;;18.40;99.90;;;;;;5032524;28;20183;-83
2022/08/27 06:30:37;;;;;;;2.42;1.48;;;18.60;99.90;;;;;;5032632;28;20575;-83
2022/08/27 06:33:03;;;;;;;5.93;1.88;;;18.50;99.90;;;;;;5032407;28;20246;-83
2022/08/27 06:35:29;;;;;;;8.18;2.13;;;18.70;99.90;;;;;;5032403;28;20613;-82
2022/08/27 06:37:54;;;;;;;2.20;1.73;;;18.90;99.90;;;;;;5032305;28;20208;-83
2022/08/27 06:40:20;;;;;;;2.28;1.50;;;18.70;99.90;;;;;;5033663;28;20588;-83
2022/08/27 06:42:46;;;;;;;6.57;2.00;;;18.70;99.90;;;;;;5032404;28;20195;-83
2022/08/27 06:45:11;;;;;;;6.57;1.55;;;18.60;99.90;;;;;;5032499;28;20573;-83
2022/08/27 06:47:37;;;;;;;2.88;1.85;;;18.70;99.90;;;;;;5033415;28;20156;-85
2022/08/27 06:50:03;;;;;;;5.05;1.50;;;18.90;99.90;;;;;;5032114;28;20544;-83
2022/08/27 06:52:29;;;;;;;5.15;1.90;;;19.20;99.90;;;;;;5032584;28;20231;-81
2022/08/27 06:54:54;;;;;;;7.85;2.05;;;19.20;99.90;;;;;;5031895;28;20625;-82
2022/08/27 06:57:21;;;;;;;3.38;1.50;;;19.40;99.90;;;;;;5031903;28;20253;-85
2022/08/27 06:59:47;;;;;;;3.78;2.03;;;19.50;99.90;;;;;;5031832;28;20160;-82
2022/08/27 07:02:22;;;;;;;6.00;1.63;;;19.00;99.90;;;;;;5048426;28;20203;-84
2022/08/27 07:04:52;;;;;;;4.25;2.05;;;18.80;99.90;;;;;;5031636;28;20175;-82
2022/08/27 07:07:18;;;;;;;9.43;2.00;;;18.80;99.90;;;;;;5031760;28;20189;-81
2022/08/27 07:09:44;;;;;;;2.88;1.45;;;18.80;99.90;;;;;;5032989;28;20648;-82
2022/08/27 07:12:09;;;;;;;3.55;1.55;;;19.00;99.90;;;;;;5031707;28;20282;-81
2022/08/27 07:14:35;;;;;;;1.95;1.63;;;19.10;99.90;;;;;;5031621;28;21507;-81
2022/08/27 07:17:01;;;;;;;9.90;1.30;;;18.70;99.90;;;;;;5031137;28;20208;-82
2022/08/27 07:19:27;;;;;;;7.15;2.05;;;18.70;99.90;;;;;;5031655;28;20221;-82
2022/08/27 07:21:53;;;;;;;6.60;1.30;;;18.60;99.90;;;;;;5031084;28;20651;-81
2022/08/27 07:24:18;;;;;;;2.20;1.30;;;18.70;99.90;;;;;;5031552;28;20172;-82
2022/08/27 07:26:45;;;;;;;6.07;1.42;;;18.90;99.90;;;;;;5032231;28;20638;-86
2022/08/27 07:29:13;;;;;;;2.10;1.02;;;19.10;99.90;;;;;;5048989;28;20168;-83
2022/08/27 07:31:39;;;;;;;4.18;1.13;;;19.30;99.90;;;;;;5031422;28;20537;-82
2022/08/27 07:34:06;;;;;;;4.28;1.17;;;19.50;99.90;;;;;;5031233;28;20221;-81
2022/08/27 07:36:33;;;;;;;7.60;1.50;;;19.60;99.90;;;;;;5031251;28;20226;-81
2022/08/27 07:38:59;;;;;;;4.53;1.27;;;19.80;99.90;;;;;;5031348;28;20191;-83
2022/08/27 07:41:25;;;;;;;2.10;1.23;;;19.70;99.90;;;;;;5032534;28;20218;-82
2022/08/27 07:46:35;;;;;;;4.50;1.38;;;19.70;99.90;;;;;;5034007;28;20189;-85
2022/08/27 07:49:01;;;;;;;2.83;1.23;;;19.70;99.90;;;;;;5031567;28;20160;-83
2022/08/27 07:51:29;;;;;;;2.30;1.15;;;19.80;99.90;;;;;;5030285;28;20249;-83
2022/08/27 07:53:55;;;;;;;2.20;1.00;;;19.80;99.90;;;;;;5031078;28;20210;-83
2022/08/27 07:56:22;;;;;;;2.75;1.20;;;19.90;99.90;;;;;;5031761;28;20210;-84
2022/08/27 07:58:48;;;;;;;4.88;0.98;;;19.90;99.90;;;;;;5048050;28;20174;-83
2022/08/27 08:01:14;;;;;;;8.13;1.20;;;19.80;99.90;;;;;;5032895;28;20168;-83
2022/08/27 08:03:40;;;;;;;7.85;1.38;;;19.80;99.90;;;;;;5031294;28;20159;-82
2022/08/27 08:06:10;;;;;;;1.35;0.70;;;19.80;99.90;;;;;;5032559;28;20179;-84
2022/08/27 08:08:38;;;;;;;5.65;1.08;;;20.00;99.90;;;;;;5033738;28;20221;-84
2022/08/27 08:11:04;;;;;;;4.10;0.82;;;20.30;99.90;;;;;;5051899;28;20164;-84
2022/08/27 08:13:31;;;;;;;10.63;0.95;;;20.50;99.90;;;;;;5036764;28;20183;-86
2022/08/27 08:15:58;;;;;;;4.70;1.10;;;20.80;99.90;;;;;;5035413;28;20249;-84
2022/08/27 08:18:24;;;;;;;4.88;0.73;;;20.90;99.90;;;;;;5035164;28;20220;-84
2022/08/27 08:20:50;;;;;;;1.85;0.93;;;20.90;99.90;;;;;;5034976;28;20286;-83
2022/08/27 08:23:16;;;;;;;12.60;1.20;;;21.00;99.90;;;;;;5034976;28;20248;-84
2022/08/27 08:25:42;;;;;;;2.47;0.82;;;20.90;99.90;;;;;;5051986;28;20233;-83
2022/08/27 08:28:10;;;;;;;1.90;0.85;;;20.90;99.90;;;;;;5051050;28;20172;-83
2022/08/27 08:30:36;;;;;;;3.75;0.70;;;21.10;99.90;;;;;;5036363;28;20214;-82
2022/08/27 08:33:02;;;;;;;6.35;0.80;;;21.20;99.90;;;;;;5034667;28;20195;-83
2022/08/27 08:35:28;;;;;;;11.88;2.35;;;21.40;99.90;;;;;;5034389;28;20182;-83
2022/08/27 08:37:53;;;;;;;5.53;1.00;;;21.60;99.90;;;;;;5034563;28;20215;-83
2022/08/27 08:40:32;;;;;;;5.20;1.25;;;21.80;99.90;;;;;;5035777;28;20188;-83
2022/08/27 08:42:59;;;;;;;2.47;0.82;;;21.80;99.90;;;;;;5035560;28;20238;-82
2022/08/27 08:45:30;;;;;;;4.22;0.60;;;21.80;99.90;;;;;;5034405;28;20164;-81
2022/08/27 08:48:03;;;;;;;1.33;0.70;;;21.50;99.90;;;;;;5050699;28;20168;-81
2022/08/27 08:50:42;;;;;;;2.20;0.93;;;21.60;99.90;;;;;;5035324;28;20207;-80
2022/08/27 08:53:20;;;;;;;9.43;0.90;;;21.60;99.90;;;;;;5034004;28;20212;-81
2022/08/27 08:55:52;;;;;;;9.32;1.02;;;21.80;99.90;;;;;;5035619;28;20172;-82
2022/08/27 08:58:51;;;;;;;2.95;1.05;;;21.70;99.90;;;;;;5036181;28;20168;-83
2022/08/27 09:01:19;;;;;;;2.78;1.40;;;21.60;99.90;;;;;;5035167;28;21863;-83
2022/08/27 09:04:02;;;;;;;4.28;0.60;;;21.70;99.90;;;;;;5035551;28;20172;-83
2022/08/27 09:06:44;;;;;;;0.75;0.65;;;21.70;99.90;;;;;;5035637;28;20171;-82
2022/08/27 09:09:28;;;;;;;7.97;1.15;;;21.80;99.90;;;;;;5034708;28;20245;-83
2022/08/27 09:11:58;;;;;;;3.40;1.10;;;21.80;99.90;;;;;;5035211;28;20187;-83
2022/08/27 09:14:32;;;;;;;2.05;0.80;;;21.80;99.90;;;;;;5034717;28;20172;-85
2022/08/27 09:16:59;;;;;;;1.23;0.70;;;22.00;99.90;;;;;;5034649;28;20582;-86
2022/08/27 09:19:26;;;;;;;2.88;0.85;;;22.10;99.90;;;;;;5035399;28;20168;-84
2022/08/27 09:22:14;;;;;;;7.35;1.45;;;21.80;99.90;;;;;;5033838;28;20196;-84
2022/08/27 09:25:07;;;;;;;2.60;0.93;;;22.00;99.90;;;;;;5033977;28;20180;-84
2022/08/27 09:27:37;;;;;;;3.80;0.90;;;21.90;99.90;;;;;;5033595;28;20172;-84
2022/08/27 09:30:10;;;;;;;10.52;1.15;;;22.00;99.90;;;;;;5035496;28;20229;-84
2022/08/27 09:32:38;;;;;;;5.70;1.10;;;22.10;99.90;;;;;;5034163;28;20195;-85
2022/08/27 09:35:06;;;;;;;1.70;1.00;;;22.20;99.90;;;;;;5035061;28;20559;-86
2022/08/27 09:37:42;;;;;;;3.83;1.20;;;22.50;99.90;;;;;;5035239;28;20204;-82
2022/08/27 09:40:21;;;;;;;2.17;0.77;;;22.80;99.90;;;;;;5041907;28;20173;-85
2022/08/27 09:42:53;;;;;;;5.20;0.98;;;23.20;99.90;;;;;;5034160;28;20187;-85
2022/08/27 09:45:27;;;;;;;2.42;1.00;;;23.50;99.90;;;;;;5035127;28;20566;-84
2022/08/27 09:48:06;;;;;;;1.52;0.90;;;23.50;99.90;;;;;;5035710;28;20166;-87
2022/08/27 09:50:40;;;;;;;2.25;0.77;;;23.10;99.90;;;;;;5035272;28;20168;-85
2022/08/27 09:53:20;;;;;;;3.70;1.00;;;22.60;99.90;;;;;;5037058;28;21008;-86
2022/08/27 09:55:56;;;;;;;2.90;1.15;;;22.40;99.90;;;;;;5036191;28;20170;-86
2022/08/27 09:58:54;;;;;;;2.00;1.17;;;21.80;99.90;;;;;;5035641;28;20179;-86
2022/08/27 10:01:25;;;;;;;8.43;1.40;;;21.30;99.90;;;;;;5027546;28;20230;-83
2022/08/27 10:04:13;;;;;;;2.53;1.30;;;21.20;99.90;;;;;;5033323;28;20322;-85
2022/08/27 10:06:49;;;;;;;4.65;1.23;;;21.20;99.90;;;;;;5034732;28;20178;-84
2022/08/27 10:09:28;;;;;;;3.75;1.02;;;21.30;99.90;;;;;;5035525;28;20190;-81
2022/08/27 10:12:05;;;;;;;9.32;1.10;;;21.80;99.90;;;;;;5034226;28;20668;-82
2022/08/27 10:14:37;;;;;;;5.05;1.10;;;22.20;99.90;;;;;;5033603;28;20508;-83
2022/08/27 10:17:24;;;;;;;6.22;1.10;;;22.50;99.90;;;;;;5034318;28;20230;-85
2022/08/27 10:20:03;;;;;;;2.80;1.40;;;22.90;99.90;;;;;;5032686;28;20175;-85
2022/08/27 10:22:35;;;;;;;5.70;1.38;;;23.20;99.90;;;;;;5034347;28;20195;-85
2022/08/27 10:25:12;;;;;;;2.03;0.93;;;23.50;99.90;;;;;;5033117;28;20168;-85
2022/08/27 10:27:46;;;;;;;1.38;0.75;;;23.60;99.90;;;;;;5034315;28;20221;-83
2022/08/27 10:30:40;;;;;;;2.38;1.02;;;23.60;99.90;;;;;;5033517;28;20171;-82
2022/08/27 10:33:15;;;;;;;6.30;1.35;;;23.80;99.90;;;;;;5033049;28;20211;-82
2022/08/27 10:36:04;;;;;;;4.53;1.10;;;23.70;99.90;;;;;;5033638;28;20266;-82
2022/08/27 10:38:52;;;;;;;4.57;1.15;;;23.30;99.90;;;;;;5032108;28;20179;-82
2022/08/27 10:41:39;;;;;;;4.28;1.15;;;23.60;99.90;;;;;;5033662;28;20246;-82
2022/08/27 10:44:36;;;;;;;1.20;0.80;;;23.60;99.90;;;;;;5032138;28;20620;-82
2022/08/27 10:47:28;;;;;;;4.32;1.10;;;23.50;99.90;;;;;;5033196;28;20160;-82
2022/08/27 10:50:05;;;;;;;5.80;0.82;;;23.50;99.90;;;;;;5021981;28;20523;-82
2022/08/27 10:52:41;;;;;;;3.65;1.15;;;23.50;99.90;;;;;;5032754;28;20206;-82
2022/08/27 10:55:21;;;;;;;7.35;1.13;;;23.60;99.90;;;;;;5033416;28;20194;-82
2022/08/27 10:58:01;;;;;;;6.05;1.88;;;23.40;99.90;;;;;;5033852;28;20577;-84
2022/08/27 11:00:49;;;;;;;2.08;1.33;;;23.60;99.90;;;;;;5033811;28;20187;-81
2022/08/27 11:03:33;;;;;;;4.68;1.00;;;23.20;99.90;;;;;;5034210;28;20199;-85
2022/08/27 11:06:07;;;;;;;4.22;0.77;;;23.30;99.90;;;;;;5034337;28;20168;-87
2022/08/27 11:08:49;;;;;;;2.13;1.30;;;23.20;99.90;;;;;;5035061;28;20178;-89
2022/08/27 11:11:33;;;;;;;4.78;1.20;;;23.50;99.90;;;;;;5034194;28;20160;-87
2022/08/27 11:13:59;;;;;;;2.67;1.38;;;23.90;99.90;;;;;;5033470;28;20171;-88
2022/08/27 11:16:42;;;;;;;3.83;1.13;;;24.20;99.90;;;;;;5033932;28;20560;-82
2022/08/27 11:19:40;;;;;;;3.08;1.40;;;23.90;99.90;;;;;;5033665;28;20168;-85
2022/08/27 11:22:16;;;;;;;9.32;1.42;;;24.00;99.90;;;;;;5032063;28;20301;-84
2022/08/27 11:25:16;;;;;;;6.72;1.10;;;23.60;99.90;;;;;;5033374;28;20715;-84
2022/08/27 11:27:43;;;;;;;1.77;1.40;;;23.50;99.90;;;;;;5033194;28;20175;-85
2022/08/27 11:30:33;;;;;;;2.45;0.85;;;23.80;99.90;;;;;;5033253;28;20178;-83
2022/08/27 11:33:16;;;;;;;3.58;1.50;;;23.80;99.90;;;;;;5033055;28;20201;-83
2022/08/27 11:36:07;;;;;;;3.88;1.40;;;23.90;99.90;;;;;;5033266;28;20200;-85
2022/08/27 11:39:11;;;;;;;3.53;1.60;;;24.20;99.90;;;;;;5032395;28;20179;-85
2022/08/27 11:41:59;;;;;;;6.22;1.05;;;24.70;99.90;;;;;;5032545;28;20195;-86
2022/08/27 11:44:26;;;;;;;1.77;0.93;;;24.40;99.90;;;;;;5032939;28;20260;-85
2022/08/27 11:47:10;;;;;;;13.60;2.78;;;24.10;99.90;;;;;;5032437;28;20172;-85
2022/08/27 11:49:52;;;;;;;4.60;1.10;;;24.00;99.90;;;;;;5032339;28;20596;-86
2022/08/27 11:52:34;;;;;;;3.08;1.45;;;24.20;99.90;;;;;;5032771;28;20607;-83
2022/08/27 11:55:18;;;;;;;1.55;1.10;;;23.90;99.90;;;;;;5031775;28;20186;-84
2022/08/27 11:57:45;;;;;;;2.20;1.40;;;23.80;99.90;;;;;;5033001;28;20211;-84
2022/08/27 12:00:26;;;;;;;4.28;1.30;;;23.70;99.90;;;;;;5031805;28;20164;-85
2022/08/27 12:03:25;;;;;;;6.85;1.58;;;23.60;99.90;;;;;;5031851;28;20282;-84
2022/08/27 12:05:54;;;;;;;6.15;1.35;;;23.60;99.90;;;;;;5033114;28;20250;-82
2022/08/27 12:08:22;;;;;;;1.85;0.88;;;23.70;99.90;;;;;;5032559;28;20175;-83
2022/08/27 12:11:19;;;;;;;11.57;1.40;;;23.90;99.90;;;;;;5032199;28;20163;-83
2022/08/27 12:13:59;;;;;;;2.78;1.25;;;23.70;99.90;;;;;;5031112;28;20210;-83
2022/08/27 12:16:50;;;;;;;3.65;1.48;;;23.60;99.90;;;;;;5031021;28;20293;-83
2022/08/27 12:19:43;;;;;;;1.65;0.93;;;23.40;99.90;;;;;;5032444;28;20210;-83
2022/08/27 12:22:18;;;;;;;4.55;1.52;;;23.60;99.90;;;;;;5032408;28;20215;-82
2022/08/27 12:24:48;;;;;;;2.85;0.98;;;23.90;99.90;;;;;;5032257;28;20683;-83
2022/08/27 12:27:20;;;;;;;1.45;1.15;;;23.80;99.90;;;;;;5032033;28;20255;-83
2022/08/27 12:29:52;;;;;;;6.18;1.13;;;23.90;99.90;;;;;;5031867;28;20164;-82
2022/08/27 12:32:29;;;;;;;2.47;1.40;;;24.40;99.90;;;;;;5031963;28;20184;-83
2022/08/27 12:35:02;;;;;;;3.90;1.25;;;24.60;99.90;;;;;;5030880;28;20171;-83
2022/08/27 12:37:34;;;;;;;6.63;1.23;;;24.90;99.90;;;;;;5030725;28;20257;-84
2022/08/27 12:40:07;;;;;;;9.13;2.10;;;24.90;99.90;;;;;;5032388;28;20611;-84
2022/08/27 12:42:33;;;;;;;2.80;1.30;;;25.20;99.90;;;;;;5031239;28;20206;-84
2022/08/27 12:44:59;;;;;;;1.75;1.30;;;25.30;99.90;;;;;;5032431;28;20180;-84
2022/08/27 12:47:25;;;;;;;3.05;1.20;;;25.20;99.90;;;;;;5032419;28;20168;-84
2022/08/27 12:49:56;;;;;;;3.53;1.27;;;25.10;99.90;;;;;;5032492;28;20172;-83
2022/08/27 12:52:51;;;;;;;2.30;1.10;;;25.00;99.90;;;;;;5032678;28;20203;-84
2022/08/27 12:55:44;;;;;;;11.25;1.50;;;25.00;99.90;;;;;;5035961;28;20334;-83
2022/08/27 12:58:30;;;;;;;2.63;1.15;;;25.10;99.90;;;;;;5036379;28;20660;-85
2022/08/27 13:01:21;;;;;;;5.57;2.42;;;25.20;99.90;;;;;;5034776;28;20175;-84
2022/08/27 13:03:49;;;;;;;3.28;2.30;;;25.10;99.90;;;;;;5034731;28;20678;-85
2022/08/27 13:06:19;;;;;;;1.52;1.30;;;24.90;99.90;;;;;;5035833;28;20171;-84
2022/08/27 13:08:46;;;;;;;4.40;1.67;;;24.50;99.90;;;;;;5034695;28;20187;-84
2022/08/27 13:11:22;;;;;;;11.02;1.35;;;23.90;99.90;;;;;;5035624;28;20536;-84